sensor_id;sensor_type;location;lat;lon;timestamp;P1;durP1;ratioP1;P2;durP2;ratioP2
32932;SDS011;19444;50.518;10.870;2023-04-01T00:02:14;8.93;;;1.45;;
32932;SDS011;19444;50.518;10.870;2023-04-01T00:05:11;13.05;;;2.20;;
32932;SDS011;19444;50.518;10.870;2023-04-01T00:08:08;3.10;;;0.80;;
32932;SDS011;19444;50.518;10.870;2023-04-01T00:11:06;3.72;;;1.13;;
32932;SDS011;19444;50.518;10.870;2023-04-01T00:14:03;3.35;;;0.88;;
32932;SDS011;19444;50.518;10.870;2023-04-01T00:17:00;3.88;;;1.10;;
32932;SDS011;19444;50.518;10.870;2023-04-01T00:19:57;3.20;;;0.63;;
32932;SDS011;19444;50.518;10.870;2023-04-01T00:22:55;3.80;;;0.65;;
32932;SDS011;19444;50.518;10.870;2023-04-01T00:25:52;2.50;;;0.60;;
32932;SDS011;19444;50.518;10.870;2023-04-01T00:28:49;5.22;;;0.90;;
32932;SDS011;19444;50.518;10.870;2023-04-01T00:31:46;3.88;;;0.68;;
32932;SDS011;19444;50.518;10.870;2023-04-01T00:34:44;3.55;;;0.63;;
32932;SDS011;19444;50.518;10.870;2023-04-01T00:37:41;1.98;;;0.77;;
32932;SDS011;19444;50.518;10.870;2023-04-01T00:40:39;4.65;;;0.90;;
32932;SDS011;19444;50.518;10.870;2023-04-01T00:43:42;6.18;;;0.93;;
32932;SDS011;19444;50.518;10.870;2023-04-01T00:46:41;6.07;;;0.95;;
32932;SDS011;19444;50.518;10.870;2023-04-01T00:49:39;3.08;;;1.17;;
32932;SDS011;19444;50.518;10.870;2023-04-01T00:52:40;2.53;;;0.60;;
32932;SDS011;19444;50.518;10.870;2023-04-01T00:55:37;1.85;;;0.50;;
32932;SDS011;19444;50.518;10.870;2023-04-01T00:58:43;3.72;;;0.55;;
32932;SDS011;19444;50.518;10.870;2023-04-01T01:01:45;2.92;;;0.63;;
32932;SDS011;19444;50.518;10.870;2023-04-01T01:04:42;2.00;;;0.60;;
32932;SDS011;19444;50.518;10.870;2023-04-01T01:11:06;4.30;;;0.70;;
32932;SDS011;19444;50.518;10.870;2023-04-01T01:14:09;3.60;;;0.70;;
32932;SDS011;19444;50.518;10.870;2023-04-01T01:17:33;3.00;;;0.70;;
32932;SDS011;19444;50.518;10.870;2023-04-01T01:24:30;2.92;;;0.75;;
32932;SDS011;19444;50.518;10.870;2023-04-01T01:27:58;5.55;;;1.02;;
32932;SDS011;19444;50.518;10.870;2023-04-01T01:31:25;4.10;;;0.80;;
32932;SDS011;19444;50.518;10.870;2023-04-01T01:38:27;1.80;;;0.57;;
32932;SDS011;19444;50.518;10.870;2023-04-01T01:41:28;2.50;;;0.93;;
32932;SDS011;19444;50.518;10.870;2023-04-01T01:44:27;4.25;;;1.30;;
32932;SDS011;19444;50.518;10.870;2023-04-01T01:47:26;4.05;;;0.80;;
32932;SDS011;19444;50.518;10.870;2023-04-01T01:50:25;0.70;;;0.47;;
32932;SDS011;19444;50.518;10.870;2023-04-01T01:53:23;4.07;;;0.85;;
32932;SDS011;19444;50.518;10.870;2023-04-01T01:56:21;3.88;;;1.00;;
32932;SDS011;19444;50.518;10.870;2023-04-01T01:59:23;1.75;;;0.70;;
32932;SDS011;19444;50.518;10.870;2023-04-01T02:02:23;1.10;;;0.57;;
32932;SDS011;19444;50.518;10.870;2023-04-01T02:05:24;4.90;;;1.02;;
32932;SDS011;19444;50.518;10.870;2023-04-01T02:08:27;3.58;;;0.90;;
32932;SDS011;19444;50.518;10.870;2023-04-01T02:12:04;3.35;;;0.95;;
32932;SDS011;19444;50.518;10.870;2023-04-01T02:15:05;3.95;;;1.08;;
32932;SDS011;19444;50.518;10.870;2023-04-01T02:18:06;2.70;;;0.63;;
32932;SDS011;19444;50.518;10.870;2023-04-01T02:21:03;5.63;;;1.33;;
32932;SDS011;19444;50.518;10.870;2023-04-01T02:24:04;3.03;;;1.02;;
32932;SDS011;19444;50.518;10.870;2023-04-01T02:27:08;4.28;;;1.00;;
32932;SDS011;19444;50.518;10.870;2023-04-01T02:30:06;5.00;;;1.60;;
32932;SDS011;19444;50.518;10.870;2023-04-01T02:33:04;5.28;;;0.98;;
32932;SDS011;19444;50.518;10.870;2023-04-01T02:36:02;4.32;;;1.20;;
32932;SDS011;19444;50.518;10.870;2023-04-01T02:39:00;4.63;;;1.00;;
32932;SDS011;19444;50.518;10.870;2023-04-01T02:41:58;2.42;;;0.60;;
32932;SDS011;19444;50.518;10.870;2023-04-01T02:44:56;3.60;;;0.90;;
32932;SDS011;19444;50.518;10.870;2023-04-01T02:47:53;2.72;;;1.00;;
32932;SDS011;19444;50.518;10.870;2023-04-01T02:50:50;5.18;;;0.77;;
32932;SDS011;19444;50.518;10.870;2023-04-01T02:53:46;4.05;;;0.80;;
32932;SDS011;19444;50.518;10.870;2023-04-01T02:56:43;4.22;;;0.88;;
32932;SDS011;19444;50.518;10.870;2023-04-01T02:59:41;3.15;;;0.70;;
32932;SDS011;19444;50.518;10.870;2023-04-01T03:02:38;4.47;;;1.02;;
32932;SDS011;19444;50.518;10.870;2023-04-01T03:05:36;1.83;;;0.60;;
32932;SDS011;19444;50.518;10.870;2023-04-01T03:08:32;5.28;;;1.00;;
32932;SDS011;19444;50.518;10.870;2023-04-01T03:11:29;5.50;;;1.52;;
32932;SDS011;19444;50.518;10.870;2023-04-01T03:14:26;1.27;;;0.55;;
32932;SDS011;19444;50.518;10.870;2023-04-01T03:17:23;2.13;;;0.60;;
32932;SDS011;19444;50.518;10.870;2023-04-01T03:20:20;4.45;;;1.15;;
32932;SDS011;19444;50.518;10.870;2023-04-01T03:23:17;3.67;;;0.70;;
32932;SDS011;19444;50.518;10.870;2023-04-01T03:26:15;5.35;;;0.80;;
32932;SDS011;19444;50.518;10.870;2023-04-01T03:29:12;4.00;;;0.73;;
32932;SDS011;19444;50.518;10.870;2023-04-01T03:32:11;4.30;;;0.77;;
32932;SDS011;19444;50.518;10.870;2023-04-01T03:35:08;5.70;;;1.35;;
32932;SDS011;19444;50.518;10.870;2023-04-01T03:38:06;2.80;;;0.80;;
32932;SDS011;19444;50.518;10.870;2023-04-01T03:41:03;5.50;;;1.15;;
32932;SDS011;19444;50.518;10.870;2023-04-01T03:44:00;2.97;;;0.68;;
32932;SDS011;19444;50.518;10.870;2023-04-01T03:46:57;1.90;;;0.68;;
32932;SDS011;19444;50.518;10.870;2023-04-01T03:49:54;5.25;;;0.85;;
32932;SDS011;19444;50.518;10.870;2023-04-01T03:52:51;3.53;;;0.85;;
32932;SDS011;19444;50.518;10.870;2023-04-01T03:55:47;3.10;;;0.63;;
32932;SDS011;19444;50.518;10.870;2023-04-01T03:58:44;2.35;;;0.68;;
32932;SDS011;19444;50.518;10.870;2023-04-01T04:01:41;3.35;;;1.05;;
32932;SDS011;19444;50.518;10.870;2023-04-01T04:04:38;3.75;;;1.20;;
32932;SDS011;19444;50.518;10.870;2023-04-01T04:07:36;2.35;;;0.77;;
32932;SDS011;19444;50.518;10.870;2023-04-01T04:10:34;4.40;;;0.80;;
32932;SDS011;19444;50.518;10.870;2023-04-01T04:13:31;2.75;;;0.75;;
32932;SDS011;19444;50.518;10.870;2023-04-01T04:16:28;5.18;;;0.75;;
32932;SDS011;19444;50.518;10.870;2023-04-01T04:19:25;2.22;;;0.65;;
32932;SDS011;19444;50.518;10.870;2023-04-01T04:22:22;2.53;;;0.65;;
32932;SDS011;19444;50.518;10.870;2023-04-01T04:25:19;3.47;;;0.52;;
32932;SDS011;19444;50.518;10.870;2023-04-01T04:28:16;2.35;;;0.80;;
32932;SDS011;19444;50.518;10.870;2023-04-01T04:31:13;2.55;;;0.50;;
32932;SDS011;19444;50.518;10.870;2023-04-01T04:34:16;2.17;;;0.57;;
32932;SDS011;19444;50.518;10.870;2023-04-01T04:37:14;3.80;;;0.93;;
32932;SDS011;19444;50.518;10.870;2023-04-01T04:40:11;2.15;;;0.57;;
32932;SDS011;19444;50.518;10.870;2023-04-01T04:43:12;1.58;;;0.50;;
32932;SDS011;19444;50.518;10.870;2023-04-01T04:46:11;3.03;;;0.60;;
32932;SDS011;19444;50.518;10.870;2023-04-01T04:49:08;3.10;;;0.60;;
32932;SDS011;19444;50.518;10.870;2023-04-01T04:52:05;2.83;;;0.73;;
32932;SDS011;19444;50.518;10.870;2023-04-01T04:55:02;1.42;;;0.50;;
32932;SDS011;19444;50.518;10.870;2023-04-01T04:58:00;4.00;;;0.95;;
32932;SDS011;19444;50.518;10.870;2023-04-01T05:00:57;3.80;;;1.02;;
32932;SDS011;19444;50.518;10.870;2023-04-01T05:03:54;3.53;;;0.60;;
32932;SDS011;19444;50.518;10.870;2023-04-01T05:06:51;3.30;;;0.70;;
32932;SDS011;19444;50.518;10.870;2023-04-01T05:09:48;4.63;;;0.77;;
32932;SDS011;19444;50.518;10.870;2023-04-01T05:12:45;1.48;;;0.50;;
32932;SDS011;19444;50.518;10.870;2023-04-01T05:15:41;3.90;;;0.65;;
32932;SDS011;19444;50.518;10.870;2023-04-01T05:18:38;4.13;;;1.48;;
32932;SDS011;19444;50.518;10.870;2023-04-01T05:21:35;3.55;;;0.88;;
32932;SDS011;19444;50.518;10.870;2023-04-01T05:24:32;2.47;;;0.80;;
32932;SDS011;19444;50.518;10.870;2023-04-01T05:27:29;3.08;;;0.65;;
32932;SDS011;19444;50.518;10.870;2023-04-01T05:30:26;4.20;;;0.85;;
32932;SDS011;19444;50.518;10.870;2023-04-01T05:33:23;4.55;;;0.85;;
32932;SDS011;19444;50.518;10.870;2023-04-01T05:36:20;4.10;;;0.63;;
32932;SDS011;19444;50.518;10.870;2023-04-01T05:39:17;1.85;;;0.70;;
32932;SDS011;19444;50.518;10.870;2023-04-01T05:42:14;2.05;;;0.40;;
32932;SDS011;19444;50.518;10.870;2023-04-01T05:45:11;1.55;;;0.47;;
32932;SDS011;19444;50.518;10.870;2023-04-01T05:48:11;6.13;;;2.40;;
32932;SDS011;19444;50.518;10.870;2023-04-01T05:51:12;7.00;;;3.67;;
32932;SDS011;19444;50.518;10.870;2023-04-01T05:54:12;15.20;;;9.32;;
32932;SDS011;19444;50.518;10.870;2023-04-01T05:57:09;10.00;;;3.10;;
32932;SDS011;19444;50.518;10.870;2023-04-01T06:00:06;13.27;;;6.03;;
32932;SDS011;19444;50.518;10.870;2023-04-01T06:03:03;7.47;;;2.97;;
32932;SDS011;19444;50.518;10.870;2023-04-01T06:06:00;4.45;;;1.10;;
32932;SDS011;19444;50.518;10.870;2023-04-01T06:09:14;5.82;;;4.00;;
32932;SDS011;19444;50.518;10.870;2023-04-01T06:12:33;4.97;;;1.13;;
32932;SDS011;19444;50.518;10.870;2023-04-01T06:16:21;3.22;;;0.77;;
32932;SDS011;19444;50.518;10.870;2023-04-01T06:20:00;6.05;;;1.00;;
32932;SDS011;19444;50.518;10.870;2023-04-01T06:26:37;3.63;;;0.75;;
32932;SDS011;19444;50.518;10.870;2023-04-01T06:43:44;3.25;;;1.20;;
32932;SDS011;19444;50.518;10.870;2023-04-01T06:46:57;2.97;;;1.10;;
32932;SDS011;19444;50.518;10.870;2023-04-01T06:50:24;3.83;;;1.92;;
32932;SDS011;19444;50.518;10.870;2023-04-01T06:53:36;1.90;;;0.90;;
32932;SDS011;19444;50.518;10.870;2023-04-01T06:56:48;2.47;;;0.60;;
32932;SDS011;19444;50.518;10.870;2023-04-01T06:59:54;4.88;;;0.90;;
32932;SDS011;19444;50.518;10.870;2023-04-01T07:03:18;2.47;;;0.73;;
32932;SDS011;19444;50.518;10.870;2023-04-01T07:06:32;3.67;;;1.58;;
32932;SDS011;19444;50.518;10.870;2023-04-01T07:09:34;2.00;;;1.02;;
32932;SDS011;19444;50.518;10.870;2023-04-01T07:12:52;3.05;;;0.60;;
32932;SDS011;19444;50.518;10.870;2023-04-01T07:15:58;3.08;;;0.73;;
32932;SDS011;19444;50.518;10.870;2023-04-01T07:22:42;2.45;;;0.57;;
32932;SDS011;19444;50.518;10.870;2023-04-01T07:25:51;2.13;;;1.05;;
32932;SDS011;19444;50.518;10.870;2023-04-01T07:28:54;1.35;;;0.47;;
32932;SDS011;19444;50.518;10.870;2023-04-01T07:35:39;3.67;;;1.80;;
32932;SDS011;19444;50.518;10.870;2023-04-01T07:39:05;1.92;;;1.02;;
32932;SDS011;19444;50.518;10.870;2023-04-01T07:52:40;2.47;;;0.70;;
32932;SDS011;19444;50.518;10.870;2023-04-01T07:56:34;4.32;;;0.95;;
32932;SDS011;19444;50.518;10.870;2023-04-01T08:03:43;4.15;;;1.00;;
32932;SDS011;19444;50.518;10.870;2023-04-01T08:07:23;2.95;;;0.60;;
32932;SDS011;19444;50.518;10.870;2023-04-01T08:10:48;0.95;;;0.50;;
32932;SDS011;19444;50.518;10.870;2023-04-01T08:14:12;4.65;;;1.25;;
32932;SDS011;19444;50.518;10.870;2023-04-01T08:17:27;3.00;;;0.73;;
32932;SDS011;19444;50.518;10.870;2023-04-01T08:20:33;2.33;;;0.90;;
32932;SDS011;19444;50.518;10.870;2023-04-01T08:23:41;2.45;;;0.40;;
32932;SDS011;19444;50.518;10.870;2023-04-01T08:26:42;1.50;;;0.50;;
32932;SDS011;19444;50.518;10.870;2023-04-01T08:29:59;3.15;;;0.82;;
32932;SDS011;19444;50.518;10.870;2023-04-01T08:33:27;2.47;;;0.63;;
32932;SDS011;19444;50.518;10.870;2023-04-01T08:36:34;1.40;;;0.47;;
32932;SDS011;19444;50.518;10.870;2023-04-01T08:39:37;2.33;;;0.45;;
32932;SDS011;19444;50.518;10.870;2023-04-01T08:43:03;2.13;;;0.98;;
32932;SDS011;19444;50.518;10.870;2023-04-01T08:50:33;2.13;;;0.60;;
32932;SDS011;19444;50.518;10.870;2023-04-01T08:57:44;1.88;;;0.70;;
32932;SDS011;19444;50.518;10.870;2023-04-01T09:00:53;1.52;;;0.50;;
32932;SDS011;19444;50.518;10.870;2023-04-01T09:15:00;2.05;;;1.20;;
32932;SDS011;19444;50.518;10.870;2023-04-01T09:25:20;3.17;;;0.60;;
32932;SDS011;19444;50.518;10.870;2023-04-01T09:35:38;1.50;;;1.02;;
32932;SDS011;19444;50.518;10.870;2023-04-01T09:39:20;1.20;;;0.80;;
32932;SDS011;19444;50.518;10.870;2023-04-01T09:42:42;1.65;;;0.80;;
32932;SDS011;19444;50.518;10.870;2023-04-01T09:46:16;3.97;;;1.88;;
32932;SDS011;19444;50.518;10.870;2023-04-01T09:49:40;1.23;;;0.63;;
32932;SDS011;19444;50.518;10.870;2023-04-01T09:53:06;3.28;;;0.47;;
32932;SDS011;19444;50.518;10.870;2023-04-01T09:59:57;3.20;;;1.60;;
32932;SDS011;19444;50.518;10.870;2023-04-01T10:03:47;5.38;;;2.17;;
32932;SDS011;19444;50.518;10.870;2023-04-01T10:17:34;2.58;;;1.00;;
32932;SDS011;19444;50.518;10.870;2023-04-01T10:21:13;2.90;;;0.80;;
32932;SDS011;19444;50.518;10.870;2023-04-01T10:28:47;3.72;;;1.92;;
32932;SDS011;19444;50.518;10.870;2023-04-01T10:39:02;2.67;;;1.23;;
32932;SDS011;19444;50.518;10.870;2023-04-01T10:50:02;2.70;;;1.30;;
32932;SDS011;19444;50.518;10.870;2023-04-01T11:01:22;1.17;;;0.60;;
32932;SDS011;19444;50.518;10.870;2023-04-01T11:04:28;3.60;;;1.30;;
32932;SDS011;19444;50.518;10.870;2023-04-01T11:21:59;0.63;;;0.40;;
32932;SDS011;19444;50.518;10.870;2023-04-01T11:28:54;1.25;;;0.47;;
32932;SDS011;19444;50.518;10.870;2023-04-01T11:32:09;2.03;;;0.80;;
32932;SDS011;19444;50.518;10.870;2023-04-01T11:35:46;2.22;;;1.48;;
32932;SDS011;19444;50.518;10.870;2023-04-01T11:42:46;1.67;;;1.00;;
32932;SDS011;19444;50.518;10.870;2023-04-01T11:49:24;1.38;;;0.47;;
32932;SDS011;19444;50.518;10.870;2023-04-01T11:59:39;1.45;;;0.22;;
32932;SDS011;19444;50.518;10.870;2023-04-01T12:09:46;0.82;;;0.60;;
32932;SDS011;19444;50.518;10.870;2023-04-01T12:16:47;1.10;;;0.50;;
32932;SDS011;19444;50.518;10.870;2023-04-01T12:19:56;1.40;;;0.40;;
32932;SDS011;19444;50.518;10.870;2023-04-01T12:45:03;0.85;;;0.47;;
32932;SDS011;19444;50.518;10.870;2023-04-01T12:48:32;0.95;;;0.30;;
32932;SDS011;19444;50.518;10.870;2023-04-01T12:52:11;0.73;;;0.30;;
32932;SDS011;19444;50.518;10.870;2023-04-01T12:55:33;0.30;;;0.22;;
32932;SDS011;19444;50.518;10.870;2023-04-01T13:16:07;0.50;;;0.30;;
32932;SDS011;19444;50.518;10.870;2023-04-01T13:19:14;0.52;;;0.40;;
32932;SDS011;19444;50.518;10.870;2023-04-01T13:29:18;1.33;;;0.40;;
32932;SDS011;19444;50.518;10.870;2023-04-01T13:38:56;0.38;;;0.30;;
32932;SDS011;19444;50.518;10.870;2023-04-01T13:42:33;0.63;;;0.38;;
32932;SDS011;19444;50.518;10.870;2023-04-01T13:49:12;0.45;;;0.30;;
32932;SDS011;19444;50.518;10.870;2023-04-01T14:03:26;0.77;;;0.35;;
32932;SDS011;19444;50.518;10.870;2023-04-01T14:07:09;1.95;;;0.90;;
32932;SDS011;19444;50.518;10.870;2023-04-01T14:10:38;2.28;;;0.95;;
32932;SDS011;19444;50.518;10.870;2023-04-01T14:13:52;0.47;;;0.30;;
32932;SDS011;19444;50.518;10.870;2023-04-01T14:27:56;0.52;;;0.20;;
32932;SDS011;19444;50.518;10.870;2023-04-01T14:38:35;0.75;;;0.40;;
32932;SDS011;19444;50.518;10.870;2023-04-01T14:45:12;1.63;;;0.43;;
32932;SDS011;19444;50.518;10.870;2023-04-01T14:48:37;0.40;;;0.20;;
32932;SDS011;19444;50.518;10.870;2023-04-01T14:51:55;0.55;;;0.30;;
32932;SDS011;19444;50.518;10.870;2023-04-01T14:55:00;1.13;;;0.28;;
32932;SDS011;19444;50.518;10.870;2023-04-01T15:01:13;0.40;;;0.30;;
32932;SDS011;19444;50.518;10.870;2023-04-01T15:04:52;1.08;;;0.10;;
32932;SDS011;19444;50.518;10.870;2023-04-01T15:08:36;5.03;;;2.47;;
32932;SDS011;19444;50.518;10.870;2023-04-01T15:21:50;0.30;;;0.10;;
32932;SDS011;19444;50.518;10.870;2023-04-01T15:28:50;0.30;;;0.20;;
32932;SDS011;19444;50.518;10.870;2023-04-01T15:32:05;0.30;;;0.30;;
32932;SDS011;19444;50.518;10.870;2023-04-01T15:38:53;0.22;;;0.20;;
32932;SDS011;19444;50.518;10.870;2023-04-01T15:42:45;0.15;;;0.10;;
32932;SDS011;19444;50.518;10.870;2023-04-01T15:49:44;0.52;;;0.20;;
32932;SDS011;19444;50.518;10.870;2023-04-01T16:10:03;0.28;;;0.20;;
32932;SDS011;19444;50.518;10.870;2023-04-01T16:13:48;0.50;;;0.25;;
32932;SDS011;19444;50.518;10.870;2023-04-01T16:17:17;0.55;;;0.20;;
32932;SDS011;19444;50.518;10.870;2023-04-01T16:20:46;0.35;;;0.20;;
32932;SDS011;19444;50.518;10.870;2023-04-01T16:24:12;0.98;;;0.20;;
32932;SDS011;19444;50.518;10.870;2023-04-01T16:30:44;0.20;;;0.17;;
32932;SDS011;19444;50.518;10.870;2023-04-01T16:37:15;0.27;;;0.20;;
32932;SDS011;19444;50.518;10.870;2023-04-01T16:47:16;0.40;;;0.13;;
32932;SDS011;19444;50.518;10.870;2023-04-01T16:57:09;0.68;;;0.20;;
32932;SDS011;19444;50.518;10.870;2023-04-01T17:00:39;0.40;;;0.17;;
32932;SDS011;19444;50.518;10.870;2023-04-01T17:03:49;1.55;;;0.10;;
32932;SDS011;19444;50.518;10.870;2023-04-01T17:06:54;0.85;;;0.30;;
32932;SDS011;19444;50.518;10.870;2023-04-01T17:10:00;0.32;;;0.17;;
32932;SDS011;19444;50.518;10.870;2023-04-01T17:17:17;0.80;;;0.30;;
32932;SDS011;19444;50.518;10.870;2023-04-01T17:27:44;5.55;;;3.53;;
32932;SDS011;19444;50.518;10.870;2023-04-01T17:34:35;9.40;;;5.37;;
32932;SDS011;19444;50.518;10.870;2023-04-01T17:38:01;2.70;;;1.60;;
32932;SDS011;19444;50.518;10.870;2023-04-01T17:44:18;2.08;;;0.90;;
32932;SDS011;19444;50.518;10.870;2023-04-01T17:51:10;0.75;;;0.40;;
32932;SDS011;19444;50.518;10.870;2023-04-01T17:54:53;1.35;;;0.50;;
32932;SDS011;19444;50.518;10.870;2023-04-01T18:18:50;4.57;;;2.85;;
32932;SDS011;19444;50.518;10.870;2023-04-01T18:28:48;0.50;;;0.40;;
32932;SDS011;19444;50.518;10.870;2023-04-01T18:31:54;1.17;;;0.47;;
32932;SDS011;19444;50.518;10.870;2023-04-01T18:38:50;1.30;;;0.50;;
32932;SDS011;19444;50.518;10.870;2023-04-01T18:45:57;1.50;;;0.40;;
32932;SDS011;19444;50.518;10.870;2023-04-01T18:52:28;1.05;;;0.50;;
32932;SDS011;19444;50.518;10.870;2023-04-01T19:05:38;2.78;;;1.77;;
32932;SDS011;19444;50.518;10.870;2023-04-01T19:08:39;5.07;;;2.40;;
32932;SDS011;19444;50.518;10.870;2023-04-01T19:11:43;2.00;;;0.90;;
32932;SDS011;19444;50.518;10.870;2023-04-01T19:15:20;0.93;;;0.40;;
32932;SDS011;19444;50.518;10.870;2023-04-01T19:19:28;0.80;;;0.47;;
32932;SDS011;19444;50.518;10.870;2023-04-01T19:25:49;1.10;;;0.57;;
32932;SDS011;19444;50.518;10.870;2023-04-01T19:28:59;1.27;;;0.60;;
32932;SDS011;19444;50.518;10.870;2023-04-01T19:32:33;5.43;;;3.55;;
32932;SDS011;19444;50.518;10.870;2023-04-01T19:42:48;5.93;;;3.50;;
32932;SDS011;19444;50.518;10.870;2023-04-01T19:46:14;1.10;;;0.60;;
32932;SDS011;19444;50.518;10.870;2023-04-01T19:49:36;1.38;;;0.88;;
32932;SDS011;19444;50.518;10.870;2023-04-01T19:52:42;1.15;;;0.75;;
32932;SDS011;19444;50.518;10.870;2023-04-01T19:55:41;0.90;;;0.50;;
32932;SDS011;19444;50.518;10.870;2023-04-01T20:02:28;1.02;;;0.65;;
32932;SDS011;19444;50.518;10.870;2023-04-01T20:05:44;1.50;;;0.50;;
32932;SDS011;19444;50.518;10.870;2023-04-01T20:09:12;0.85;;;0.50;;
32932;SDS011;19444;50.518;10.870;2023-04-01T20:12:48;0.75;;;0.40;;
32932;SDS011;19444;50.518;10.870;2023-04-01T20:16:17;0.65;;;0.55;;
32932;SDS011;19444;50.518;10.870;2023-04-01T20:19:23;0.77;;;0.50;;
32932;SDS011;19444;50.518;10.870;2023-04-01T20:26:20;2.03;;;0.47;;
32932;SDS011;19444;50.518;10.870;2023-04-01T20:29:27;2.65;;;1.23;;
32932;SDS011;19444;50.518;10.870;2023-04-01T20:39:43;1.30;;;0.35;;
32932;SDS011;19444;50.518;10.870;2023-04-01T20:57:25;0.75;;;0.43;;
32932;SDS011;19444;50.518;10.870;2023-04-01T21:07:40;1.02;;;0.50;;
32932;SDS011;19444;50.518;10.870;2023-04-01T21:20:59;1.85;;;0.40;;
32932;SDS011;19444;50.518;10.870;2023-04-01T21:28:03;1.92;;;0.70;;
32932;SDS011;19444;50.518;10.870;2023-04-01T21:31:27;0.88;;;0.60;;
32932;SDS011;19444;50.518;10.870;2023-04-01T21:34:48;1.33;;;0.43;;
32932;SDS011;19444;50.518;10.870;2023-04-01T21:41:26;0.70;;;0.60;;
32932;SDS011;19444;50.518;10.870;2023-04-01T21:44:43;1.00;;;0.50;;
32932;SDS011;19444;50.518;10.870;2023-04-01T21:48:22;0.70;;;0.50;;
32932;SDS011;19444;50.518;10.870;2023-04-01T21:52:02;1.33;;;0.50;;
32932;SDS011;19444;50.518;10.870;2023-04-01T21:55:43;0.70;;;0.30;;
32932;SDS011;19444;50.518;10.870;2023-04-01T21:59:29;1.17;;;0.50;;
32932;SDS011;19444;50.518;10.870;2023-04-01T22:06:45;0.90;;;0.50;;
32932;SDS011;19444;50.518;10.870;2023-04-01T22:13:22;0.80;;;0.60;;
32932;SDS011;19444;50.518;10.870;2023-04-01T22:20:03;1.10;;;0.63;;
32932;SDS011;19444;50.518;10.870;2023-04-01T22:23:36;1.95;;;0.70;;
32932;SDS011;19444;50.518;10.870;2023-04-01T22:30:20;0.70;;;0.50;;
32932;SDS011;19444;50.518;10.870;2023-04-01T22:40:21;1.35;;;0.50;;
32932;SDS011;19444;50.518;10.870;2023-04-01T22:43:40;1.58;;;0.50;;
32932;SDS011;19444;50.518;10.870;2023-04-01T22:46:43;1.77;;;0.70;;
32932;SDS011;19444;50.518;10.870;2023-04-01T22:50:21;1.10;;;0.65;;
32932;SDS011;19444;50.518;10.870;2023-04-01T22:57:10;1.92;;;0.95;;
32932;SDS011;19444;50.518;10.870;2023-04-01T23:00:43;1.42;;;1.00;;
32932;SDS011;19444;50.518;10.870;2023-04-01T23:03:49;1.25;;;0.80;;
32932;SDS011;19444;50.518;10.870;2023-04-01T23:06:49;2.25;;;0.80;;
32932;SDS011;19444;50.518;10.870;2023-04-01T23:09:54;1.45;;;0.90;;
32932;SDS011;19444;50.518;10.870;2023-04-01T23:12:55;1.33;;;0.77;;
32932;SDS011;19444;50.518;10.870;2023-04-01T23:15:57;1.80;;;0.82;;
32932;SDS011;19444;50.518;10.870;2023-04-01T23:18:58;1.55;;;0.75;;
32932;SDS011;19444;50.518;10.870;2023-04-01T23:22:24;1.85;;;0.70;;
32932;SDS011;19444;50.518;10.870;2023-04-01T23:25:36;2.53;;;1.15;;
32932;SDS011;19444;50.518;10.870;2023-04-01T23:29:01;1.38;;;0.73;;
32932;SDS011;19444;50.518;10.870;2023-04-01T23:31:59;1.20;;;0.90;;
32932;SDS011;19444;50.518;10.870;2023-04-01T23:34:58;1.27;;;0.90;;
32932;SDS011;19444;50.518;10.870;2023-04-01T23:37:56;2.63;;;1.15;;
32932;SDS011;19444;50.518;10.870;2023-04-01T23:40:55;3.13;;;1.27;;
32932;SDS011;19444;50.518;10.870;2023-04-01T23:43:56;2.22;;;1.30;;
32932;SDS011;19444;50.518;10.870;2023-04-01T23:47:00;1.30;;;1.00;;
32932;SDS011;19444;50.518;10.870;2023-04-01T23:49:59;1.52;;;0.98;;
32932;SDS011;19444;50.518;10.870;2023-04-01T23:56:16;3.08;;;1.02;;
32932;SDS011;19444;50.518;10.870;2023-04-01T23:59:17;1.75;;;0.98;;
